sensor_id;sensor_type;location;lat;lon;timestamp;P1;durP1;ratioP1;P2;durP2;ratioP2
1509;SDS011;746;48.688;9.428;2024-02-21T00:00:58;14.93;;;11.40;;
1509;SDS011;746;48.688;9.428;2024-02-21T00:03:20;14.60;;;11.40;;
1509;SDS011;746;48.688;9.428;2024-02-21T00:05:42;14.10;;;11.37;;
1509;SDS011;746;48.688;9.428;2024-02-21T00:08:05;16.20;;;11.33;;
1509;SDS011;746;48.688;9.428;2024-02-21T00:10:30;15.07;;;10.70;;
1509;SDS011;746;48.688;9.428;2024-02-21T00:12:53;14.23;;;10.77;;
1509;SDS011;746;48.688;9.428;2024-02-21T00:15:15;14.53;;;11.03;;
1509;SDS011;746;48.688;9.428;2024-02-21T00:17:37;13.50;;;10.67;;
1509;SDS011;746;48.688;9.428;2024-02-21T00:20:03;15.20;;;10.60;;
1509;SDS011;746;48.688;9.428;2024-02-21T00:22:26;15.57;;;11.03;;
1509;SDS011;746;48.688;9.428;2024-02-21T00:25:08;17.97;;;10.80;;
1509;SDS011;746;48.688;9.428;2024-02-21T00:27:32;12.07;;;9.97;;
1509;SDS011;746;48.688;9.428;2024-02-21T00:29:54;15.43;;;10.47;;
1509;SDS011;746;48.688;9.428;2024-02-21T00:32:16;19.43;;;11.20;;
1509;SDS011;746;48.688;9.428;2024-02-21T00:34:39;33.33;;;17.30;;
1509;SDS011;746;48.688;9.428;2024-02-21T00:37:01;15.77;;;11.17;;
1509;SDS011;746;48.688;9.428;2024-02-21T00:39:24;12.53;;;10.23;;
1509;SDS011;746;48.688;9.428;2024-02-21T00:41:46;18.30;;;10.83;;
1509;SDS011;746;48.688;9.428;2024-02-21T00:44:09;13.23;;;9.90;;
1509;SDS011;746;48.688;9.428;2024-02-21T00:46:36;15.27;;;10.47;;
1509;SDS011;746;48.688;9.428;2024-02-21T00:49:00;17.13;;;10.20;;
1509;SDS011;746;48.688;9.428;2024-02-21T00:51:22;15.40;;;10.90;;
1509;SDS011;746;48.688;9.428;2024-02-21T00:53:44;14.73;;;10.40;;
1509;SDS011;746;48.688;9.428;2024-02-21T00:56:06;16.13;;;10.47;;
1509;SDS011;746;48.688;9.428;2024-02-21T00:58:28;16.07;;;11.33;;
1509;SDS011;746;48.688;9.428;2024-02-21T01:00:52;17.27;;;12.27;;
1509;SDS011;746;48.688;9.428;2024-02-21T01:03:14;18.43;;;11.30;;
1509;SDS011;746;48.688;9.428;2024-02-21T01:05:38;27.67;;;13.67;;
1509;SDS011;746;48.688;9.428;2024-02-21T01:08:00;23.37;;;15.33;;
1509;SDS011;746;48.688;9.428;2024-02-21T01:10:23;21.00;;;13.47;;
1509;SDS011;746;48.688;9.428;2024-02-21T01:12:45;19.43;;;13.10;;
1509;SDS011;746;48.688;9.428;2024-02-21T01:15:08;18.13;;;13.50;;
1509;SDS011;746;48.688;9.428;2024-02-21T01:17:32;20.80;;;12.77;;
1509;SDS011;746;48.688;9.428;2024-02-21T01:19:54;19.23;;;12.57;;
1509;SDS011;746;48.688;9.428;2024-02-21T01:22:16;15.90;;;11.00;;
1509;SDS011;746;48.688;9.428;2024-02-21T01:24:38;14.53;;;11.30;;
1509;SDS011;746;48.688;9.428;2024-02-21T01:27:01;19.83;;;10.97;;
1509;SDS011;746;48.688;9.428;2024-02-21T01:29:23;14.00;;;10.20;;
1509;SDS011;746;48.688;9.428;2024-02-21T01:31:45;15.23;;;10.53;;
1509;SDS011;746;48.688;9.428;2024-02-21T01:34:09;15.80;;;10.53;;
1509;SDS011;746;48.688;9.428;2024-02-21T01:36:31;14.93;;;9.73;;
1509;SDS011;746;48.688;9.428;2024-02-21T01:38:53;12.37;;;8.97;;
1509;SDS011;746;48.688;9.428;2024-02-21T01:41:15;14.57;;;9.70;;
1509;SDS011;746;48.688;9.428;2024-02-21T01:43:37;12.00;;;8.93;;
1509;SDS011;746;48.688;9.428;2024-02-21T01:46:00;12.97;;;9.20;;
1509;SDS011;746;48.688;9.428;2024-02-21T01:48:22;13.70;;;8.93;;
1509;SDS011;746;48.688;9.428;2024-02-21T01:50:46;13.30;;;8.83;;
1509;SDS011;746;48.688;9.428;2024-02-21T01:53:09;13.20;;;8.53;;
1509;SDS011;746;48.688;9.428;2024-02-21T01:55:38;12.70;;;9.00;;
1509;SDS011;746;48.688;9.428;2024-02-21T01:58:03;12.33;;;8.53;;
1509;SDS011;746;48.688;9.428;2024-02-21T02:00:26;13.13;;;7.70;;
1509;SDS011;746;48.688;9.428;2024-02-21T02:02:48;11.63;;;7.47;;
1509;SDS011;746;48.688;9.428;2024-02-21T02:05:11;13.50;;;7.43;;
1509;SDS011;746;48.688;9.428;2024-02-21T02:07:34;11.93;;;7.63;;
1509;SDS011;746;48.688;9.428;2024-02-21T02:09:57;13.93;;;7.43;;
1509;SDS011;746;48.688;9.428;2024-02-21T02:12:19;14.33;;;7.63;;
1509;SDS011;746;48.688;9.428;2024-02-21T02:14:41;9.40;;;7.07;;
1509;SDS011;746;48.688;9.428;2024-02-21T02:17:03;12.27;;;7.37;;
1509;SDS011;746;48.688;9.428;2024-02-21T02:19:25;11.07;;;8.00;;
1509;SDS011;746;48.688;9.428;2024-02-21T02:21:49;15.37;;;8.37;;
1509;SDS011;746;48.688;9.428;2024-02-21T02:24:18;10.50;;;8.00;;
1509;SDS011;746;48.688;9.428;2024-02-21T02:26:40;13.30;;;7.80;;
1509;SDS011;746;48.688;9.428;2024-02-21T02:29:02;11.63;;;8.17;;
1509;SDS011;746;48.688;9.428;2024-02-21T02:31:25;11.93;;;8.30;;
1509;SDS011;746;48.688;9.428;2024-02-21T02:33:47;14.13;;;8.00;;
1509;SDS011;746;48.688;9.428;2024-02-21T02:36:10;10.43;;;7.17;;
1509;SDS011;746;48.688;9.428;2024-02-21T02:38:32;17.13;;;8.50;;
1509;SDS011;746;48.688;9.428;2024-02-21T02:40:55;11.00;;;7.80;;
1509;SDS011;746;48.688;9.428;2024-02-21T02:43:18;13.37;;;8.20;;
1509;SDS011;746;48.688;9.428;2024-02-21T02:45:40;13.23;;;7.97;;
1509;SDS011;746;48.688;9.428;2024-02-21T02:48:03;9.70;;;7.53;;
1509;SDS011;746;48.688;9.428;2024-02-21T02:50:26;11.73;;;7.97;;
1509;SDS011;746;48.688;9.428;2024-02-21T02:52:48;12.57;;;7.70;;
1509;SDS011;746;48.688;9.428;2024-02-21T02:55:11;9.57;;;6.87;;
1509;SDS011;746;48.688;9.428;2024-02-21T02:57:34;11.47;;;7.57;;
1509;SDS011;746;48.688;9.428;2024-02-21T02:59:56;10.30;;;7.10;;
1509;SDS011;746;48.688;9.428;2024-02-21T03:02:19;12.47;;;6.97;;
1509;SDS011;746;48.688;9.428;2024-02-21T03:04:41;9.90;;;6.97;;
1509;SDS011;746;48.688;9.428;2024-02-21T03:07:03;11.77;;;7.13;;
1509;SDS011;746;48.688;9.428;2024-02-21T03:09:25;9.20;;;7.00;;
1509;SDS011;746;48.688;9.428;2024-02-21T03:11:48;12.33;;;7.07;;
1509;SDS011;746;48.688;9.428;2024-02-21T03:14:12;15.17;;;7.70;;
1509;SDS011;746;48.688;9.428;2024-02-21T03:16:34;9.80;;;6.47;;
1509;SDS011;746;48.688;9.428;2024-02-21T03:18:57;10.40;;;6.30;;
1509;SDS011;746;48.688;9.428;2024-02-21T03:21:19;10.60;;;6.67;;
1509;SDS011;746;48.688;9.428;2024-02-21T03:23:41;10.20;;;6.73;;
1509;SDS011;746;48.688;9.428;2024-02-21T03:26:03;10.60;;;6.90;;
1509;SDS011;746;48.688;9.428;2024-02-21T03:28:26;8.30;;;6.70;;
1509;SDS011;746;48.688;9.428;2024-02-21T03:30:50;10.47;;;7.43;;
1509;SDS011;746;48.688;9.428;2024-02-21T03:33:12;10.87;;;7.23;;
1509;SDS011;746;48.688;9.428;2024-02-21T03:35:34;10.07;;;6.60;;
1509;SDS011;746;48.688;9.428;2024-02-21T03:37:56;8.83;;;6.63;;
1509;SDS011;746;48.688;9.428;2024-02-21T03:40:18;9.70;;;7.33;;
1509;SDS011;746;48.688;9.428;2024-02-21T03:42:41;11.20;;;7.87;;
1509;SDS011;746;48.688;9.428;2024-02-21T03:45:03;11.97;;;8.10;;
1509;SDS011;746;48.688;9.428;2024-02-21T03:47:27;14.00;;;8.73;;
1509;SDS011;746;48.688;9.428;2024-02-21T03:49:50;14.70;;;9.00;;
1509;SDS011;746;48.688;9.428;2024-02-21T03:52:12;10.50;;;7.87;;
1509;SDS011;746;48.688;9.428;2024-02-21T03:54:34;12.47;;;9.37;;
1509;SDS011;746;48.688;9.428;2024-02-21T03:56:56;13.97;;;8.93;;
1509;SDS011;746;48.688;9.428;2024-02-21T03:59:18;16.23;;;9.33;;
1509;SDS011;746;48.688;9.428;2024-02-21T04:01:41;14.73;;;8.80;;
1509;SDS011;746;48.688;9.428;2024-02-21T04:04:05;15.13;;;8.87;;
1509;SDS011;746;48.688;9.428;2024-02-21T04:06:29;12.17;;;9.10;;
1509;SDS011;746;48.688;9.428;2024-02-21T04:08:51;15.33;;;9.43;;
1509;SDS011;746;48.688;9.428;2024-02-21T04:11:13;12.43;;;9.10;;
1509;SDS011;746;48.688;9.428;2024-02-21T04:13:37;13.97;;;9.37;;
1509;SDS011;746;48.688;9.428;2024-02-21T04:16:09;13.47;;;9.73;;
1509;SDS011;746;48.688;9.428;2024-02-21T04:18:32;13.33;;;9.10;;
1509;SDS011;746;48.688;9.428;2024-02-21T04:20:56;12.90;;;8.73;;
1509;SDS011;746;48.688;9.428;2024-02-21T04:23:18;17.00;;;9.13;;
1509;SDS011;746;48.688;9.428;2024-02-21T04:25:40;14.10;;;9.10;;
1509;SDS011;746;48.688;9.428;2024-02-21T04:28:03;11.90;;;9.07;;
1509;SDS011;746;48.688;9.428;2024-02-21T04:30:25;10.70;;;8.10;;
1509;SDS011;746;48.688;9.428;2024-02-21T04:32:48;11.97;;;8.47;;
1509;SDS011;746;48.688;9.428;2024-02-21T04:35:10;11.17;;;8.13;;
1509;SDS011;746;48.688;9.428;2024-02-21T04:37:34;12.33;;;8.17;;
1509;SDS011;746;48.688;9.428;2024-02-21T04:39:56;14.73;;;8.33;;
1509;SDS011;746;48.688;9.428;2024-02-21T04:42:18;16.23;;;7.83;;
1509;SDS011;746;48.688;9.428;2024-02-21T04:44:40;12.57;;;8.07;;
1509;SDS011;746;48.688;9.428;2024-02-21T04:47:03;15.93;;;7.70;;
1509;SDS011;746;48.688;9.428;2024-02-21T04:49:25;8.67;;;7.47;;
1509;SDS011;746;48.688;9.428;2024-02-21T04:51:48;12.03;;;7.87;;
1509;SDS011;746;48.688;9.428;2024-02-21T04:54:11;10.07;;;7.93;;
1509;SDS011;746;48.688;9.428;2024-02-21T04:56:34;10.77;;;7.33;;
1509;SDS011;746;48.688;9.428;2024-02-21T04:58:56;12.57;;;8.07;;
1509;SDS011;746;48.688;9.428;2024-02-21T05:01:18;9.83;;;7.60;;
1509;SDS011;746;48.688;9.428;2024-02-21T05:03:40;12.60;;;7.93;;
1509;SDS011;746;48.688;9.428;2024-02-21T05:06:03;11.63;;;8.30;;
1509;SDS011;746;48.688;9.428;2024-02-21T05:08:25;11.80;;;7.33;;
1509;SDS011;746;48.688;9.428;2024-02-21T05:10:49;9.33;;;8.23;;
1509;SDS011;746;48.688;9.428;2024-02-21T05:13:11;13.87;;;9.03;;
1509;SDS011;746;48.688;9.428;2024-02-21T05:15:33;46.10;;;23.53;;
1509;SDS011;746;48.688;9.428;2024-02-21T05:17:55;14.20;;;9.43;;
1509;SDS011;746;48.688;9.428;2024-02-21T05:20:18;13.87;;;9.43;;
1509;SDS011;746;48.688;9.428;2024-02-21T05:22:40;15.17;;;9.90;;
1509;SDS011;746;48.688;9.428;2024-02-21T05:25:02;13.07;;;9.47;;
1509;SDS011;746;48.688;9.428;2024-02-21T05:27:26;11.83;;;8.80;;
1509;SDS011;746;48.688;9.428;2024-02-21T05:29:48;13.20;;;9.77;;
1509;SDS011;746;48.688;9.428;2024-02-21T05:32:10;13.53;;;9.40;;
1509;SDS011;746;48.688;9.428;2024-02-21T05:34:32;17.33;;;10.93;;
1509;SDS011;746;48.688;9.428;2024-02-21T05:36:55;13.43;;;9.80;;
1509;SDS011;746;48.688;9.428;2024-02-21T05:39:18;13.80;;;9.97;;
1509;SDS011;746;48.688;9.428;2024-02-21T05:41:40;16.80;;;9.53;;
1509;SDS011;746;48.688;9.428;2024-02-21T05:44:04;13.63;;;9.80;;
1509;SDS011;746;48.688;9.428;2024-02-21T05:46:26;18.10;;;9.97;;
1509;SDS011;746;48.688;9.428;2024-02-21T05:48:49;14.20;;;9.07;;
1509;SDS011;746;48.688;9.428;2024-02-21T05:51:11;15.93;;;9.83;;
1509;SDS011;746;48.688;9.428;2024-02-21T05:53:34;17.00;;;11.30;;
1509;SDS011;746;48.688;9.428;2024-02-21T05:55:57;26.07;;;19.10;;
1509;SDS011;746;48.688;9.428;2024-02-21T05:58:19;25.30;;;19.80;;
1509;SDS011;746;48.688;9.428;2024-02-21T06:00:42;19.10;;;14.20;;
1509;SDS011;746;48.688;9.428;2024-02-21T06:03:05;15.53;;;10.63;;
1509;SDS011;746;48.688;9.428;2024-02-21T06:05:27;13.23;;;9.80;;
1509;SDS011;746;48.688;9.428;2024-02-21T06:07:50;13.30;;;10.47;;
1509;SDS011;746;48.688;9.428;2024-02-21T06:10:12;13.73;;;9.63;;
1509;SDS011;746;48.688;9.428;2024-02-21T06:12:34;19.53;;;12.03;;
1509;SDS011;746;48.688;9.428;2024-02-21T06:14:56;13.17;;;9.40;;
1509;SDS011;746;48.688;9.428;2024-02-21T06:17:20;13.70;;;9.90;;
1509;SDS011;746;48.688;9.428;2024-02-21T06:19:42;14.20;;;9.70;;
1509;SDS011;746;48.688;9.428;2024-02-21T06:22:05;14.97;;;10.73;;
1509;SDS011;746;48.688;9.428;2024-02-21T06:24:28;15.70;;;10.80;;
1509;SDS011;746;48.688;9.428;2024-02-21T06:26:50;15.03;;;11.00;;
1509;SDS011;746;48.688;9.428;2024-02-21T06:29:13;17.30;;;11.30;;
1509;SDS011;746;48.688;9.428;2024-02-21T06:31:35;14.20;;;11.67;;
1509;SDS011;746;48.688;9.428;2024-02-21T06:33:58;14.33;;;11.43;;
1509;SDS011;746;48.688;9.428;2024-02-21T06:36:22;17.53;;;11.07;;
1509;SDS011;746;48.688;9.428;2024-02-21T06:38:44;13.93;;;9.87;;
1509;SDS011;746;48.688;9.428;2024-02-21T06:41:14;15.47;;;10.97;;
1509;SDS011;746;48.688;9.428;2024-02-21T06:43:36;34.80;;;22.17;;
1509;SDS011;746;48.688;9.428;2024-02-21T06:45:59;17.97;;;11.97;;
1509;SDS011;746;48.688;9.428;2024-02-21T06:48:21;14.30;;;10.13;;
1509;SDS011;746;48.688;9.428;2024-02-21T06:50:50;13.63;;;9.33;;
1509;SDS011;746;48.688;9.428;2024-02-21T06:53:12;15.50;;;9.23;;
1509;SDS011;746;48.688;9.428;2024-02-21T06:55:34;12.20;;;8.93;;
1509;SDS011;746;48.688;9.428;2024-02-21T06:57:56;15.77;;;9.60;;
1509;SDS011;746;48.688;9.428;2024-02-21T07:00:19;17.13;;;9.03;;
1509;SDS011;746;48.688;9.428;2024-02-21T07:02:44;16.17;;;10.70;;
1509;SDS011;746;48.688;9.428;2024-02-21T07:05:07;13.27;;;8.53;;
1509;SDS011;746;48.688;9.428;2024-02-21T07:07:31;12.03;;;8.20;;
1509;SDS011;746;48.688;9.428;2024-02-21T07:09:53;14.10;;;8.60;;
1509;SDS011;746;48.688;9.428;2024-02-21T07:12:15;13.67;;;8.70;;
1509;SDS011;746;48.688;9.428;2024-02-21T07:14:56;14.37;;;9.20;;
1509;SDS011;746;48.688;9.428;2024-02-21T07:17:18;13.33;;;9.13;;
1509;SDS011;746;48.688;9.428;2024-02-21T07:19:41;14.57;;;10.57;;
1509;SDS011;746;48.688;9.428;2024-02-21T07:22:03;15.23;;;10.23;;
1509;SDS011;746;48.688;9.428;2024-02-21T07:24:27;13.83;;;10.13;;
1509;SDS011;746;48.688;9.428;2024-02-21T07:26:49;10.43;;;9.07;;
1509;SDS011;746;48.688;9.428;2024-02-21T07:29:11;12.80;;;8.80;;
1509;SDS011;746;48.688;9.428;2024-02-21T07:31:38;10.87;;;8.67;;
1509;SDS011;746;48.688;9.428;2024-02-21T07:34:00;11.87;;;8.63;;
1509;SDS011;746;48.688;9.428;2024-02-21T07:36:28;13.20;;;8.87;;
1509;SDS011;746;48.688;9.428;2024-02-21T07:38:51;11.03;;;8.17;;
1509;SDS011;746;48.688;9.428;2024-02-21T07:41:14;10.90;;;7.90;;
1509;SDS011;746;48.688;9.428;2024-02-21T07:43:37;11.00;;;8.33;;
1509;SDS011;746;48.688;9.428;2024-02-21T07:45:59;10.77;;;7.27;;
1509;SDS011;746;48.688;9.428;2024-02-21T07:48:22;10.43;;;6.47;;
1509;SDS011;746;48.688;9.428;2024-02-21T07:50:45;9.37;;;6.23;;
1509;SDS011;746;48.688;9.428;2024-02-21T07:53:07;9.40;;;6.20;;
1509;SDS011;746;48.688;9.428;2024-02-21T07:55:29;8.30;;;5.93;;
1509;SDS011;746;48.688;9.428;2024-02-21T07:57:53;7.00;;;5.30;;
1509;SDS011;746;48.688;9.428;2024-02-21T08:00:17;8.57;;;5.70;;
1509;SDS011;746;48.688;9.428;2024-02-21T08:02:42;8.10;;;5.70;;
1509;SDS011;746;48.688;9.428;2024-02-21T08:05:04;9.37;;;6.03;;
1509;SDS011;746;48.688;9.428;2024-02-21T08:07:27;12.33;;;5.73;;
1509;SDS011;746;48.688;9.428;2024-02-21T08:09:50;10.07;;;6.07;;
1509;SDS011;746;48.688;9.428;2024-02-21T08:12:12;8.40;;;5.37;;
1509;SDS011;746;48.688;9.428;2024-02-21T08:14:36;9.23;;;5.40;;
1509;SDS011;746;48.688;9.428;2024-02-21T08:16:58;9.50;;;5.20;;
1509;SDS011;746;48.688;9.428;2024-02-21T08:19:21;8.70;;;5.00;;
1509;SDS011;746;48.688;9.428;2024-02-21T08:21:44;8.70;;;4.80;;
1509;SDS011;746;48.688;9.428;2024-02-21T08:24:07;8.73;;;4.90;;
1509;SDS011;746;48.688;9.428;2024-02-21T08:26:29;7.80;;;5.10;;
1509;SDS011;746;48.688;9.428;2024-02-21T08:28:52;5.30;;;4.77;;
1509;SDS011;746;48.688;9.428;2024-02-21T08:31:19;6.57;;;4.30;;
1509;SDS011;746;48.688;9.428;2024-02-21T08:33:41;7.60;;;4.90;;
1509;SDS011;746;48.688;9.428;2024-02-21T08:36:04;13.27;;;6.63;;
1509;SDS011;746;48.688;9.428;2024-02-21T08:38:35;7.33;;;4.87;;
1509;SDS011;746;48.688;9.428;2024-02-21T08:40:57;8.50;;;4.90;;
1509;SDS011;746;48.688;9.428;2024-02-21T08:43:19;10.13;;;5.13;;
1509;SDS011;746;48.688;9.428;2024-02-21T08:45:42;9.50;;;5.60;;
1509;SDS011;746;48.688;9.428;2024-02-21T08:48:06;8.63;;;5.30;;
1509;SDS011;746;48.688;9.428;2024-02-21T08:50:28;9.03;;;4.90;;
1509;SDS011;746;48.688;9.428;2024-02-21T08:52:58;9.93;;;5.40;;
1509;SDS011;746;48.688;9.428;2024-02-21T08:55:20;11.27;;;5.30;;
1509;SDS011;746;48.688;9.428;2024-02-21T08:57:42;8.80;;;4.83;;
1509;SDS011;746;48.688;9.428;2024-02-21T09:00:05;9.43;;;4.97;;
1509;SDS011;746;48.688;9.428;2024-02-21T09:02:31;8.87;;;4.80;;
1509;SDS011;746;48.688;9.428;2024-02-21T09:04:55;10.20;;;5.20;;
1509;SDS011;746;48.688;9.428;2024-02-21T09:07:17;11.90;;;5.10;;
1509;SDS011;746;48.688;9.428;2024-02-21T09:09:40;8.90;;;5.00;;
1509;SDS011;746;48.688;9.428;2024-02-21T09:12:02;7.53;;;4.73;;
1509;SDS011;746;48.688;9.428;2024-02-21T09:14:29;7.13;;;4.67;;
1509;SDS011;746;48.688;9.428;2024-02-21T09:16:52;10.63;;;5.23;;
1509;SDS011;746;48.688;9.428;2024-02-21T09:19:14;8.97;;;4.87;;
1509;SDS011;746;48.688;9.428;2024-02-21T09:21:38;9.57;;;5.13;;
1509;SDS011;746;48.688;9.428;2024-02-21T09:24:00;7.10;;;5.10;;
1509;SDS011;746;48.688;9.428;2024-02-21T09:26:23;6.33;;;4.70;;
1509;SDS011;746;48.688;9.428;2024-02-21T09:28:46;10.77;;;5.13;;
1509;SDS011;746;48.688;9.428;2024-02-21T09:31:08;9.50;;;4.77;;
1509;SDS011;746;48.688;9.428;2024-02-21T09:33:31;8.23;;;4.70;;
1509;SDS011;746;48.688;9.428;2024-02-21T09:35:53;8.73;;;4.53;;
1509;SDS011;746;48.688;9.428;2024-02-21T09:38:17;8.37;;;4.60;;
1509;SDS011;746;48.688;9.428;2024-02-21T09:40:39;7.07;;;4.60;;
1509;SDS011;746;48.688;9.428;2024-02-21T09:43:03;6.77;;;4.37;;
1509;SDS011;746;48.688;9.428;2024-02-21T09:45:27;11.90;;;4.87;;
1509;SDS011;746;48.688;9.428;2024-02-21T09:47:57;5.20;;;4.40;;
1509;SDS011;746;48.688;9.428;2024-02-21T09:50:27;8.60;;;4.77;;
1509;SDS011;746;48.688;9.428;2024-02-21T09:52:51;7.63;;;4.03;;
1509;SDS011;746;48.688;9.428;2024-02-21T09:55:16;12.60;;;4.50;;
1509;SDS011;746;48.688;9.428;2024-02-21T09:57:39;6.60;;;3.87;;
1509;SDS011;746;48.688;9.428;2024-02-21T10:00:03;8.60;;;4.23;;
1509;SDS011;746;48.688;9.428;2024-02-21T10:02:28;6.93;;;4.10;;
1509;SDS011;746;48.688;9.428;2024-02-21T10:04:50;6.17;;;3.80;;
1509;SDS011;746;48.688;9.428;2024-02-21T10:07:13;5.27;;;3.50;;
1509;SDS011;746;48.688;9.428;2024-02-21T10:09:35;7.07;;;3.70;;
1509;SDS011;746;48.688;9.428;2024-02-21T10:12:08;6.53;;;3.77;;
1509;SDS011;746;48.688;9.428;2024-02-21T10:14:31;8.73;;;3.67;;
1509;SDS011;746;48.688;9.428;2024-02-21T10:16:56;6.43;;;4.10;;
1509;SDS011;746;48.688;9.428;2024-02-21T10:19:20;5.97;;;3.50;;
1509;SDS011;746;48.688;9.428;2024-02-21T10:21:42;4.87;;;3.57;;
1509;SDS011;746;48.688;9.428;2024-02-21T10:24:05;6.53;;;3.27;;
1509;SDS011;746;48.688;9.428;2024-02-21T10:26:27;6.80;;;3.53;;
1509;SDS011;746;48.688;9.428;2024-02-21T10:28:50;7.27;;;3.40;;
1509;SDS011;746;48.688;9.428;2024-02-21T10:31:21;7.90;;;3.53;;
1509;SDS011;746;48.688;9.428;2024-02-21T10:33:44;5.53;;;3.17;;
1509;SDS011;746;48.688;9.428;2024-02-21T10:36:15;6.23;;;3.33;;
1509;SDS011;746;48.688;9.428;2024-02-21T10:38:38;5.33;;;3.67;;
1509;SDS011;746;48.688;9.428;2024-02-21T10:41:00;4.47;;;3.10;;
1509;SDS011;746;48.688;9.428;2024-02-21T10:43:25;6.63;;;3.00;;
1509;SDS011;746;48.688;9.428;2024-02-21T10:45:49;5.73;;;3.00;;
1509;SDS011;746;48.688;9.428;2024-02-21T10:48:13;7.03;;;3.13;;
1509;SDS011;746;48.688;9.428;2024-02-21T10:50:36;4.60;;;2.67;;
1509;SDS011;746;48.688;9.428;2024-02-21T10:53:12;4.77;;;2.90;;
1509;SDS011;746;48.688;9.428;2024-02-21T10:55:41;6.23;;;3.27;;
1509;SDS011;746;48.688;9.428;2024-02-21T10:58:10;5.57;;;3.00;;
1509;SDS011;746;48.688;9.428;2024-02-21T11:00:41;3.83;;;2.90;;
1509;SDS011;746;48.688;9.428;2024-02-21T11:03:05;4.63;;;2.83;;
1509;SDS011;746;48.688;9.428;2024-02-21T11:05:28;7.47;;;2.77;;
1509;SDS011;746;48.688;9.428;2024-02-21T11:07:51;5.13;;;2.83;;
1509;SDS011;746;48.688;9.428;2024-02-21T11:10:20;5.47;;;2.93;;
1509;SDS011;746;48.688;9.428;2024-02-21T11:12:43;3.30;;;2.40;;
1509;SDS011;746;48.688;9.428;2024-02-21T11:15:06;5.87;;;2.80;;
1509;SDS011;746;48.688;9.428;2024-02-21T11:17:28;5.43;;;3.23;;
1509;SDS011;746;48.688;9.428;2024-02-21T11:19:52;6.63;;;2.80;;
1509;SDS011;746;48.688;9.428;2024-02-21T11:22:14;4.03;;;3.00;;
1509;SDS011;746;48.688;9.428;2024-02-21T11:24:38;5.10;;;2.73;;
1509;SDS011;746;48.688;9.428;2024-02-21T11:27:08;4.80;;;2.53;;
1509;SDS011;746;48.688;9.428;2024-02-21T11:29:30;3.77;;;2.60;;
1509;SDS011;746;48.688;9.428;2024-02-21T11:31:52;5.93;;;2.97;;
1509;SDS011;746;48.688;9.428;2024-02-21T11:34:17;4.00;;;2.73;;
1509;SDS011;746;48.688;9.428;2024-02-21T11:36:47;4.80;;;3.03;;
1509;SDS011;746;48.688;9.428;2024-02-21T11:39:12;7.57;;;3.50;;
1509;SDS011;746;48.688;9.428;2024-02-21T11:41:35;3.57;;;2.30;;
1509;SDS011;746;48.688;9.428;2024-02-21T11:43:57;4.93;;;2.73;;
1509;SDS011;746;48.688;9.428;2024-02-21T11:46:20;3.97;;;2.50;;
1509;SDS011;746;48.688;9.428;2024-02-21T11:48:42;4.80;;;2.70;;
1509;SDS011;746;48.688;9.428;2024-02-21T11:51:05;4.87;;;2.60;;
1509;SDS011;746;48.688;9.428;2024-02-21T11:53:28;6.10;;;2.70;;
1509;SDS011;746;48.688;9.428;2024-02-21T11:55:55;3.90;;;2.30;;
1509;SDS011;746;48.688;9.428;2024-02-21T11:58:18;5.70;;;2.50;;
1509;SDS011;746;48.688;9.428;2024-02-21T12:00:42;6.07;;;2.70;;
1509;SDS011;746;48.688;9.428;2024-02-21T12:03:04;3.60;;;2.43;;
1509;SDS011;746;48.688;9.428;2024-02-21T12:05:27;4.10;;;2.33;;
1509;SDS011;746;48.688;9.428;2024-02-21T12:07:50;3.07;;;2.60;;
1509;SDS011;746;48.688;9.428;2024-02-21T12:10:13;4.30;;;2.37;;
1509;SDS011;746;48.688;9.428;2024-02-21T12:12:36;4.20;;;2.67;;
1509;SDS011;746;48.688;9.428;2024-02-21T12:14:58;3.83;;;2.30;;
1509;SDS011;746;48.688;9.428;2024-02-21T12:17:20;3.97;;;2.40;;
1509;SDS011;746;48.688;9.428;2024-02-21T12:19:42;4.83;;;2.57;;
1509;SDS011;746;48.688;9.428;2024-02-21T12:22:06;2.83;;;2.60;;
1509;SDS011;746;48.688;9.428;2024-02-21T12:24:29;4.27;;;2.40;;
1509;SDS011;746;48.688;9.428;2024-02-21T12:26:53;4.03;;;2.47;;
1509;SDS011;746;48.688;9.428;2024-02-21T12:29:17;2.73;;;2.37;;
1509;SDS011;746;48.688;9.428;2024-02-21T12:31:39;3.40;;;2.80;;
1509;SDS011;746;48.688;9.428;2024-02-21T12:34:03;7.30;;;3.30;;
1509;SDS011;746;48.688;9.428;2024-02-21T12:36:25;8.63;;;5.10;;
1509;SDS011;746;48.688;9.428;2024-02-21T12:38:52;5.70;;;4.37;;
1509;SDS011;746;48.688;9.428;2024-02-21T12:41:14;5.17;;;2.90;;
1509;SDS011;746;48.688;9.428;2024-02-21T12:43:38;3.47;;;2.77;;
1509;SDS011;746;48.688;9.428;2024-02-21T12:46:00;6.97;;;3.27;;
1509;SDS011;746;48.688;9.428;2024-02-21T12:48:22;5.93;;;2.90;;
1509;SDS011;746;48.688;9.428;2024-02-21T12:50:48;3.80;;;2.57;;
1509;SDS011;746;48.688;9.428;2024-02-21T12:53:11;3.40;;;2.63;;
1509;SDS011;746;48.688;9.428;2024-02-21T12:55:45;3.90;;;2.60;;
1509;SDS011;746;48.688;9.428;2024-02-21T12:58:07;3.77;;;2.77;;
1509;SDS011;746;48.688;9.428;2024-02-21T13:00:31;2.90;;;2.20;;
1509;SDS011;746;48.688;9.428;2024-02-21T13:02:54;3.17;;;2.43;;
1509;SDS011;746;48.688;9.428;2024-02-21T13:05:16;3.10;;;2.67;;
1509;SDS011;746;48.688;9.428;2024-02-21T13:07:38;4.27;;;2.60;;
1509;SDS011;746;48.688;9.428;2024-02-21T13:10:00;4.77;;;2.90;;
1509;SDS011;746;48.688;9.428;2024-02-21T13:12:24;2.90;;;2.57;;
1509;SDS011;746;48.688;9.428;2024-02-21T13:14:48;6.57;;;3.10;;
1509;SDS011;746;48.688;9.428;2024-02-21T13:17:11;3.33;;;2.90;;
1509;SDS011;746;48.688;9.428;2024-02-21T13:19:32;4.27;;;2.80;;
1509;SDS011;746;48.688;9.428;2024-02-21T13:21:54;2.80;;;2.53;;
1509;SDS011;746;48.688;9.428;2024-02-21T13:24:17;5.17;;;2.90;;
1509;SDS011;746;48.688;9.428;2024-02-21T13:26:39;4.87;;;2.80;;
1509;SDS011;746;48.688;9.428;2024-02-21T13:29:01;4.93;;;3.00;;
1509;SDS011;746;48.688;9.428;2024-02-21T13:31:24;3.40;;;2.73;;
1509;SDS011;746;48.688;9.428;2024-02-21T13:33:46;4.43;;;2.87;;
1509;SDS011;746;48.688;9.428;2024-02-21T13:36:10;2.93;;;2.67;;
1509;SDS011;746;48.688;9.428;2024-02-21T13:38:34;3.87;;;2.80;;
1509;SDS011;746;48.688;9.428;2024-02-21T13:40:56;4.27;;;2.80;;
1509;SDS011;746;48.688;9.428;2024-02-21T13:43:21;4.50;;;2.83;;
1509;SDS011;746;48.688;9.428;2024-02-21T13:45:45;3.43;;;2.87;;
1509;SDS011;746;48.688;9.428;2024-02-21T13:48:17;4.63;;;2.80;;
1509;SDS011;746;48.688;9.428;2024-02-21T13:50:40;4.37;;;2.73;;
1509;SDS011;746;48.688;9.428;2024-02-21T13:53:05;3.63;;;3.27;;
1509;SDS011;746;48.688;9.428;2024-02-21T13:55:27;4.00;;;3.10;;
1509;SDS011;746;48.688;9.428;2024-02-21T13:57:50;6.90;;;3.03;;
1509;SDS011;746;48.688;9.428;2024-02-21T14:00:12;4.60;;;3.20;;
1509;SDS011;746;48.688;9.428;2024-02-21T14:02:35;3.90;;;2.87;;
1509;SDS011;746;48.688;9.428;2024-02-21T14:04:58;4.47;;;3.20;;
1509;SDS011;746;48.688;9.428;2024-02-21T14:07:20;5.00;;;3.50;;
1509;SDS011;746;48.688;9.428;2024-02-21T14:09:43;4.57;;;3.50;;
1509;SDS011;746;48.688;9.428;2024-02-21T14:12:06;3.97;;;3.03;;
1509;SDS011;746;48.688;9.428;2024-02-21T14:14:29;3.57;;;3.23;;
1509;SDS011;746;48.688;9.428;2024-02-21T14:16:52;7.40;;;3.90;;
1509;SDS011;746;48.688;9.428;2024-02-21T14:19:14;4.60;;;3.27;;
1509;SDS011;746;48.688;9.428;2024-02-21T14:21:36;5.13;;;3.40;;
1509;SDS011;746;48.688;9.428;2024-02-21T14:23:59;5.13;;;3.00;;
1509;SDS011;746;48.688;9.428;2024-02-21T14:26:24;3.10;;;2.70;;
1509;SDS011;746;48.688;9.428;2024-02-21T14:28:47;3.93;;;3.27;;
1509;SDS011;746;48.688;9.428;2024-02-21T14:31:09;5.07;;;3.37;;
1509;SDS011;746;48.688;9.428;2024-02-21T14:33:31;3.60;;;3.30;;
1509;SDS011;746;48.688;9.428;2024-02-21T14:35:54;5.43;;;3.23;;
1509;SDS011;746;48.688;9.428;2024-02-21T14:38:16;4.47;;;2.93;;
1509;SDS011;746;48.688;9.428;2024-02-21T14:40:38;3.20;;;2.90;;
1509;SDS011;746;48.688;9.428;2024-02-21T14:43:02;5.63;;;3.30;;
1509;SDS011;746;48.688;9.428;2024-02-21T14:45:24;5.20;;;3.27;;
1509;SDS011;746;48.688;9.428;2024-02-21T14:47:46;3.30;;;3.00;;
1509;SDS011;746;48.688;9.428;2024-02-21T14:50:09;4.23;;;3.23;;
1509;SDS011;746;48.688;9.428;2024-02-21T14:52:34;4.70;;;3.00;;
1509;SDS011;746;48.688;9.428;2024-02-21T14:54:57;4.30;;;2.97;;